Time;durP1;ratioP1;P1;durP2;ratioP2;P2;SDS_P1;SDS_P2;PMS_P1;PMS_P2;Temp;Humidity;BMP_temperature;BMP_pressure;BME280_temperature;BME280_humidity;BME280_pressure;Samples;Min_cycle;Max_cycle;Signal;HPM_P1;HPM_P2
2022/05/19 00:02:11;;;;;;;19.25;12.40;;;;;;;14.01;100.00;101862.88;5071603;28;20055;-76
2022/05/19 00:04:37;;;;;;;23.33;12.95;;;;;;;14.02;100.00;101858.41;5071375;28;20060;-76
2022/05/19 00:07:02;;;;;;;19.85;13.27;;;;;;;14.04;100.00;101865.28;5071388;28;20459;-76
2022/05/19 00:09:28;;;;;;;20.08;12.05;;;;;;;14.06;100.00;101863.34;5053451;28;20044;-76
2022/05/19 00:11:55;;;;;;;18.67;11.43;;;;;;;14.07;100.00;101856.16;5053180;28;20392;-76
2022/05/19 00:14:21;;;;;;;23.85;13.30;;;;;;;14.08;100.00;101861.34;5071527;28;20033;-76
2022/05/19 00:16:47;;;;;;;18.33;12.77;;;;;;;14.09;100.00;101848.81;5071404;28;20060;-76
2022/05/19 00:19:14;;;;;;;15.88;12.30;;;;;;;14.11;100.00;101849.53;5071101;28;20116;-76
2022/05/19 00:21:41;;;;;;;18.85;13.98;;;;;;;14.12;100.00;101848.53;5071596;28;20036;-76
2022/05/19 00:24:07;;;;;;;17.63;13.20;;;;;;;14.15;100.00;101842.91;5071667;28;20202;-76
2022/05/19 00:26:33;;;;;;;17.40;12.27;;;;;;;14.17;100.00;101835.59;5071063;28;20032;-76
2022/05/19 00:28:58;;;;;;;22.40;13.80;;;;;;;14.22;100.00;101835.19;5071658;28;20453;-76
2022/05/19 00:31:23;;;;;;;16.08;12.57;;;;;;;14.24;100.00;101838.56;5071354;28;20055;-76
2022/05/19 00:33:49;;;;;;;18.38;13.02;;;;;;;14.23;100.00;101834.22;5071056;28;20037;-76
2022/05/19 00:36:16;;;;;;;16.88;12.60;;;;;;;14.23;100.00;101826.19;5070883;28;20368;-75
2022/05/19 00:38:42;;;;;;;21.27;13.40;;;;;;;14.24;100.00;101828.72;5071169;28;20108;-75
2022/05/19 00:41:09;;;;;;;20.73;14.02;;;;;;;14.25;100.00;101819.69;5052566;28;20413;-76
2022/05/19 00:43:37;;;;;;;18.50;12.70;;;;;;;14.24;100.00;101817.16;5071079;28;20024;-76
2022/05/19 00:46:28;;;;;;;21.67;14.35;;;;;;;14.24;100.00;101817.16;5071038;28;20118;-76
2022/05/19 00:48:58;;;;;;;19.50;13.35;;;;;;;14.23;100.00;101820.81;5070114;28;20040;-76
2022/05/19 00:51:36;;;;;;;17.53;13.13;;;;;;;14.24;100.00;101825.19;5070454;28;20086;-76
2022/05/19 00:54:05;;;;;;;20.77;13.18;;;;;;;14.24;100.00;101820.69;5070654;28;20258;-76
2022/05/19 00:56:42;;;;;;;19.58;14.68;;;;;;;14.24;100.00;101811.78;5070603;28;20032;-76
2022/05/19 00:59:10;;;;;;;20.52;13.60;;;;;;;14.25;100.00;101803.63;5071341;28;20029;-76
2022/05/19 01:01:39;;;;;;;17.17;13.57;;;;;;;14.26;100.00;101807.16;5070936;28;20056;-76
2022/05/19 01:04:29;;;;;;;19.42;12.52;;;;;;;14.27;100.00;101799.00;5070732;28;20032;-75
2022/05/19 01:07:00;;;;;;;26.65;14.35;;;;;;;14.29;100.00;101799.69;5070678;28;20404;-76
2022/05/19 01:09:27;;;;;;;20.42;13.43;;;;;;;14.32;100.00;101797.72;5070811;28;20032;-76
2022/05/19 01:11:55;;;;;;;19.35;12.90;;;;;;;14.35;100.00;101789.41;5070638;28;20502;-75
2022/05/19 01:14:21;;;;;;;18.52;14.68;;;;;;;14.39;100.00;101791.66;5070457;28;20043;-76
2022/05/19 01:16:47;;;;;;;27.73;14.27;;;;;;;14.43;100.00;101781.50;5070077;28;20040;-76
2022/05/19 01:19:37;;;;;;;17.13;13.43;;;;;;;14.49;100.00;101774.75;5070797;28;20048;-76
2022/05/19 01:22:13;;;;;;;24.90;16.58;;;;;;;14.53;100.00;101773.50;5070069;28;20078;-76
2022/05/19 01:25:12;;;;;;;20.23;14.65;;;;;;;14.53;100.00;101763.59;5070644;28;20024;-76
2022/05/19 01:27:38;;;;;;;20.52;14.63;;;;;;;14.55;100.00;101761.63;5069993;28;20052;-76
2022/05/19 01:30:05;;;;;;;23.08;14.27;;;;;;;14.57;100.00;101767.69;5069534;28;20472;-75
2022/05/19 01:32:31;;;;;;;25.60;15.18;;;;;;;14.58;100.00;101761.34;5069996;28;20031;-76
2022/05/19 01:34:58;;;;;;;24.58;14.80;;;;;;;14.60;100.00;101764.72;5069850;28;20024;-76
2022/05/19 01:37:23;;;;;;;22.15;14.90;;;;;;;14.64;100.00;101762.63;5069467;28;20115;-76
2022/05/19 01:40:02;;;;;;;28.08;16.17;;;;;;;14.71;100.00;101758.41;5070321;28;20054;-75
2022/05/19 01:42:53;;;;;;;28.08;15.98;;;;;;;14.77;100.00;101768.53;5070017;28;20374;-75
2022/05/19 01:45:42;;;;;;;25.03;16.00;;;;;;;14.83;100.00;101759.09;5069910;28;20212;-76
2022/05/19 01:48:25;;;;;;;28.73;15.93;;;;;;;14.90;100.00;101757.53;5070177;28;20429;-76
2022/05/19 01:51:15;;;;;;;23.85;15.60;;;;;;;14.97;100.00;101763.13;5069831;28;20473;-76
2022/05/19 01:54:04;;;;;;;23.10;16.02;;;;;;;15.04;100.00;101764.25;5069681;28;20081;-76
2022/05/19 01:56:39;;;;;;;18.73;14.57;;;;;;;15.09;100.00;101753.94;5069514;28;20090;-76
2022/05/19 01:59:34;;;;;;;25.85;16.13;;;;;;;15.16;100.00;101746.97;5051769;28;20067;-76
2022/05/19 02:02:15;;;;;;;28.98;15.25;;;;;;;15.22;100.00;101734.00;5071342;28;20028;-76
2022/05/19 02:04:57;;;;;;;28.05;16.77;;;;;;;15.29;100.00;101735.94;5074061;28;20085;-76
2022/05/19 02:07:23;;;;;;;24.08;17.17;;;;;;;15.33;100.00;101750.72;5055889;28;20345;-76
2022/05/19 02:09:55;;;;;;;26.92;16.65;;;;;;;15.44;100.00;101789.06;5073437;28;20039;-76
2022/05/19 02:12:21;;;;;;;25.77;17.38;;;;;;;15.51;100.00;101804.44;5074081;28;20029;-76
2022/05/19 02:14:55;;;;;;;29.10;17.38;;;;;;;15.63;100.00;101791.66;5073413;28;20432;-76
2022/05/19 02:17:23;;;;;;;33.72;19.25;;;;;;;15.77;100.00;101814.47;5073598;28;20134;-76
2022/05/19 02:19:54;;;;;;;32.67;19.10;;;;;;;15.86;100.00;101812.75;5073574;28;20499;-76
2022/05/19 02:22:21;;;;;;;;;;;;;;;15.94;100.00;101814.69;5073669;28;20040;-76
2022/05/19 02:24:59;;;;;;;36.45;18.83;;;;;;;15.97;100.00;101807.19;5073249;28;20205;-80
2022/05/19 02:27:44;;;;;;;35.58;20.23;;;;;;;15.85;100.00;101803.00;5073083;28;20135;-80
2022/05/19 02:30:16;;;;;;;34.42;20.63;;;;;;;15.72;100.00;101791.75;5073716;28;20040;-79
2022/05/19 02:32:41;;;;;;;41.33;21.85;;;;;;;15.62;100.00;101792.66;5073095;28;20032;-80
2022/05/19 02:35:07;;;;;;;30.02;21.77;;;;;;;15.56;100.00;101806.66;5073234;28;20425;-80
2022/05/19 02:37:34;;;;;;;39.42;24.33;;;;;;;15.51;100.00;101804.44;5072950;28;20075;-79
2022/05/19 02:40:00;;;;;;;42.08;25.92;;;;;;;15.46;100.00;101798.66;5072792;28;20028;-79
2022/05/19 02:42:26;;;;;;;40.72;26.95;;;;;;;15.41;100.00;101792.06;5072915;28;20031;-80
2022/05/19 02:44:51;;;;;;;33.42;23.23;;;;;;;15.38;100.00;101809.28;5072996;28;20028;-80
2022/05/19 02:47:16;;;;;;;44.42;26.98;;;;;;;15.38;100.00;101817.31;5072906;28;20036;-79
2022/05/19 02:49:41;;;;;;;44.35;27.52;;;;;;;15.36;100.00;101816.63;5073072;28;20032;-80
2022/05/19 02:52:07;;;;;;;54.08;31.05;;;;;;;15.37;100.00;101817.47;5073060;28;20036;-78
2022/05/19 02:54:32;;;;;;;60.20;34.25;;;;;;;15.39;100.00;101808.28;5072920;28;20089;-79
2022/05/19 02:56:58;;;;;;;48.50;30.38;;;;;;;15.44;100.00;101808.69;5072759;28;20052;-78
2022/05/19 02:59:23;;;;;;;62.78;36.55;;;;;;;15.48;100.00;101803.84;5072995;28;20055;-79
2022/05/19 03:01:48;;;;;;;61.63;36.15;;;;;;;15.52;100.00;101813.31;5073202;28;20134;-79
2022/05/19 03:04:14;;;;;;;63.83;37.38;;;;;;;15.59;100.00;101808.22;5072571;28;20063;-79
2022/05/19 03:06:39;;;;;;;52.60;32.28;;;;;;;15.66;100.00;101802.09;5072936;28;20036;-79
2022/05/19 03:09:05;;;;;;;54.72;32.53;;;;;;;15.73;100.00;101807.69;5072698;28;20033;-79
2022/05/19 03:11:31;;;;;;;50.38;31.15;;;;;;;15.78;100.00;101808.13;5072505;28;20134;-79
2022/05/19 03:13:57;;;;;;;55.58;31.83;;;;;;;15.85;100.00;101809.22;5053694;28;20032;-79
2022/05/19 03:16:22;;;;;;;56.40;29.23;;;;;;;15.87;100.00;101792.97;5054236;28;20036;-79
2022/05/19 03:18:47;;;;;;;46.33;27.65;;;;;;;15.92;100.00;101793.34;5072539;28;20031;-79
2022/05/19 03:21:13;;;;;;;38.42;24.77;;;;;;;15.94;100.00;101786.00;5072060;28;20090;-79
2022/05/19 03:23:38;;;;;;;35.88;23.48;;;;;;;15.99;100.00;101781.03;5038141;28;20036;-78
2022/05/19 03:26:04;;;;;;;34.83;21.88;;;;;;;16.00;100.00;101788.09;5072550;28;20072;-79
2022/05/19 03:28:29;;;;;;;28.30;19.20;;;;;;;16.03;100.00;101797.66;5072572;28;20045;-79
2022/05/19 03:30:54;;;;;;;26.20;17.45;;;;;;;16.12;100.00;101960.53;5072291;28;20051;-78
2022/05/19 03:33:20;;;;;;;34.38;18.92;;;;;;;16.25;100.00;101967.38;5071624;28;20043;-79
2022/05/19 03:35:55;;;;;;;33.88;21.83;;;;;;;16.32;100.00;101947.00;5072423;28;20040;-79
2022/05/19 03:38:21;;;;;;;35.83;21.20;;;;;;;16.38;100.00;101965.19;5072522;28;20028;-78
2022/05/19 03:40:47;;;;;;;39.78;21.40;;;;;;;16.38;100.00;101941.88;5071926;28;20421;-79
2022/05/19 03:43:12;;;;;;;29.83;21.45;;;;;;;16.38;100.00;101954.47;5072377;28;20028;-78
2022/05/19 03:45:38;;;;;;;32.88;22.92;;;;;;;16.34;100.00;101964.63;5071972;28;20096;-79
2022/05/19 03:48:03;;;;;;;35.83;25.77;;;;;;;16.31;100.00;101958.72;5072131;28;20028;-77
2022/05/19 03:50:29;;;;;;;40.17;25.15;;;;;;;16.28;100.00;101951.81;5072432;28;20394;-78
2022/05/19 03:52:54;;;;;;;34.42;23.90;;;;;;;16.25;100.00;101949.44;5072294;28;20093;-78
2022/05/19 03:55:19;;;;;;;41.67;28.55;;;;;;;16.24;100.00;101936.16;5072310;28;20094;-78
2022/05/19 03:57:46;;;;;;;33.13;25.08;;;;;;;16.20;100.00;101920.34;5072439;28;20081;-79
2022/05/19 04:00:12;;;;;;;34.00;25.40;;;;;;;16.17;100.00;101923.34;5072042;28;20146;-78
2022/05/19 04:02:38;;;;;;;30.83;23.17;;;;;;;16.14;100.00;101896.78;5072355;28;20032;-79
2022/05/19 04:05:04;;;;;;;42.45;28.48;;;;;;;16.11;100.00;101899.78;5072039;28;20040;-77
2022/05/19 04:07:29;;;;;;;39.13;28.90;;;;;;;16.10;100.00;101919.53;5071761;28;20036;-78
2022/05/19 04:09:54;;;;;;;47.92;32.97;;;;;;;16.07;100.00;101924.38;5071854;28;20032;-79
2022/05/19 04:12:20;;;;;;;44.05;29.35;;;;;;;16.04;100.00;101902.19;5071923;28;20060;-78
2022/05/19 04:14:46;;;;;;;37.42;27.55;;;;;;;16.00;100.00;101898.13;5072096;28;20146;-79
2022/05/19 04:17:11;;;;;;;45.88;30.88;;;;;;;15.98;100.00;101894.75;5071737;28;20419;-78
2022/05/19 04:19:37;;;;;;;40.90;27.33;;;;;;;15.93;100.00;101896.19;5071578;28;20204;-79
2022/05/19 04:22:02;;;;;;;42.53;29.27;;;;;;;15.88;100.00;101887.75;5071838;28;20036;-78
2022/05/19 04:24:28;;;;;;;39.92;29.95;;;;;;;15.81;100.00;101891.00;5072876;28;20028;-79
2022/05/19 04:26:54;;;;;;;47.13;31.77;;;;;;;15.79;100.00;101890.31;5073365;28;20043;-79
2022/05/19 04:29:19;;;;;;;41.80;33.10;;;;;;;15.76;100.00;101889.72;5071949;28;20142;-79
2022/05/19 04:31:44;;;;;;;42.58;31.50;;;;;;;15.73;100.00;101888.19;5071622;28;20032;-80
2022/05/19 04:34:10;;;;;;;47.63;36.30;;;;;;;15.69;100.00;101884.97;5071476;28;20106;-78
2022/05/19 04:36:36;;;;;;;42.00;33.28;;;;;;;15.68;100.00;101880.56;5071397;28;20052;-79
2022/05/19 04:39:01;;;;;;;45.17;35.30;;;;;;;15.64;100.00;101892.59;5071344;28;20028;-79
2022/05/19 04:41:26;;;;;;;41.45;32.10;;;;;;;15.62;100.00;101885.69;5053621;28;20430;-79
2022/05/19 04:43:52;;;;;;;46.50;35.97;;;;;;;15.58;100.00;101882.44;5071217;28;20039;-79
2022/05/19 04:46:18;;;;;;;46.83;37.92;;;;;;;15.59;100.00;101883.31;5071426;28;20055;-78
2022/05/19 04:48:43;;;;;;;44.55;36.35;;;;;;;15.58;100.00;101882.44;5071196;28;20115;-79
2022/05/19 04:51:08;;;;;;;43.70;36.88;;;;;;;15.57;100.00;101879.91;5071516;28;20090;-78
2022/05/19 04:53:34;;;;;;;49.75;39.35;;;;;;;15.55;100.00;101874.69;5071088;28;20058;-79
2022/05/19 04:56:00;;;;;;;54.67;40.90;;;;;;;15.56;100.00;101872.88;5071052;28;20044;-79
2022/05/19 04:58:25;;;;;;;57.70;40.95;;;;;;;15.57;100.00;101870.06;5071278;28;20040;-79
2022/05/19 05:00:52;;;;;;;51.25;41.13;;;;;;;15.56;100.00;101865.66;5070584;28;20037;-79
2022/05/19 05:03:18;;;;;;;53.20;40.95;;;;;;;15.58;100.00;101863.66;5071106;28;20444;-79
2022/05/19 05:05:44;;;;;;;59.25;43.63;;;;;;;15.59;100.00;101854.63;5071082;28;20025;-79
2022/05/19 05:08:09;;;;;;;59.25;45.22;;;;;;;15.62;100.00;101845.47;5070523;28;20198;-80
2022/05/19 05:10:35;;;;;;;55.97;44.22;;;;;;;15.65;100.00;101839.81;5052895;28;20064;-80
2022/05/19 05:13:05;;;;;;;59.33;45.38;;;;;;;15.69;100.00;101838.53;5070928;28;20473;-79
2022/05/19 05:15:31;;;;;;;57.87;43.77;;;;;;;15.72;100.00;101823.94;5070619;28;20028;-79
2022/05/19 05:17:56;;;;;;;61.58;44.42;;;;;;;15.77;100.00;101810.94;5070332;28;20403;-80
2022/05/19 05:20:21;;;;;;;56.15;38.95;;;;;;;15.80;100.00;101798.09;5070501;28;20451;-79
2022/05/19 05:22:47;;;;;;;54.03;40.72;;;;;;;15.83;100.00;101789.72;5070626;28;20077;-79
2022/05/19 05:25:15;;;;;;;54.53;42.53;;;;;;;15.88;100.00;101789.28;5070198;28;20206;-78
2022/05/19 05:27:40;;;;;;;51.20;38.95;;;;;;;15.93;100.00;101770.91;5070244;28;20055;-78
2022/05/19 05:30:07;;;;;;;50.80;35.28;;;;;;;15.99;100.00;101761.41;5070615;28;20044;-77
2022/05/19 05:32:33;;;;;;;46.72;36.65;;;;;;;16.01;100.00;101752.19;5052686;28;20021;-77
2022/05/19 05:34:58;;;;;;;39.65;31.88;;;;;;;15.98;100.00;101749.81;5052325;28;20455;-78
2022/05/19 05:37:24;;;;;;;40.08;28.67;;;;;;;15.97;100.00;101752.63;5069849;28;20441;-77
2022/05/19 05:39:49;;;;;;;38.78;28.42;;;;;;;15.98;100.00;101757.84;5070376;28;20391;-75
2022/05/19 05:42:15;;;;;;;34.35;29.15;;;;;;;16.00;100.00;101757.69;5070313;28;20115;-79
2022/05/19 05:44:40;;;;;;;38.38;28.48;;;;;;;16.03;100.00;101754.72;5070093;28;20028;-79
2022/05/19 05:47:05;;;;;;;35.58;27.67;;;;;;;16.06;100.00;101761.63;5070248;28;20068;-77
2022/05/19 05:49:31;;;;;;;33.33;26.63;;;;;;;16.06;100.00;101772.38;5069638;28;20090;-76
2022/05/19 05:51:56;;;;;;;36.05;26.58;;;;;;;16.07;100.00;101776.75;5069953;28;20044;-75
2022/05/19 05:54:22;;;;;;;28.90;24.98;;;;;;;16.10;100.00;101787.19;5069524;28;20065;-77
2022/05/19 05:56:47;;;;;;;36.72;27.15;;;;;;;16.16;100.00;101781.19;5069909;28;20491;-77
2022/05/19 05:59:12;;;;;;;40.20;28.33;;;;;;;16.26;100.00;101776.59;5070280;28;20033;-77
2022/05/19 06:01:38;;;;;;;34.53;28.77;;;;;;;16.37;100.00;101772.81;5069890;28;20024;-76
2022/05/19 06:04:03;;;;;;;39.42;28.30;;;;;;;16.52;100.00;101775.78;5070329;28;20362;-76
2022/05/19 06:06:29;;;;;;;34.65;28.45;;;;;;;16.64;100.00;101777.22;5069756;28;20028;-78
2022/05/19 06:08:54;;;;;;;33.20;27.42;;;;;;;16.77;100.00;101773.31;5069676;28;20052;-76
2022/05/19 06:11:20;;;;;;;30.90;23.52;;;;;;;16.88;100.00;101770.38;5069381;28;20177;-78
2022/05/19 06:13:45;;;;;;;35.13;24.20;;;;;;;16.95;100.00;101766.06;5069983;28;20360;-76
2022/05/19 06:16:11;;;;;;;29.05;22.20;;;;;;;16.97;100.00;101772.13;5070162;28;20372;-76
2022/05/19 06:18:36;;;;;;;28.55;24.13;;;;;;;17.00;100.00;101766.41;5069570;28;20020;-76
2022/05/19 06:21:03;;;;;;;29.17;24.45;;;;;;;17.12;100.00;101774.22;5070013;28;20480;-76
2022/05/19 06:23:28;;;;;;;35.22;23.30;;;;;;;17.24;100.00;101773.81;5069998;28;20432;-77
2022/05/19 06:25:54;;;;;;;29.38;22.63;;;;;;;17.36;100.00;101763.59;5069751;28;20032;-77
2022/05/19 06:28:19;;;;;;;29.45;22.02;;;;;;;17.45;100.00;101756.38;5050634;28;20510;-77
2022/05/19 06:30:45;;;;;;;25.83;21.42;;;;;;;17.52;100.00;101754.72;5051012;28;20483;-76
2022/05/19 06:33:12;;;;;;;24.30;21.25;;;;;;;17.61;100.00;101772.59;5069352;28;20031;-77
2022/05/19 06:35:38;;;;;;;29.02;22.48;;;;;;;17.71;100.00;101772.47;5069156;28;20035;-78
2022/05/19 06:38:04;;;;;;;25.13;21.35;;;;;;;17.80;100.00;101781.41;5069046;28;20448;-77
2022/05/19 06:40:31;;;;;;;25.25;20.55;;;;;;;17.90;100.00;101792.91;5068986;28;20138;-76
2022/05/19 06:42:57;;;;;;;24.35;19.33;;;;;;;17.96;100.00;101786.88;5069040;28;20082;-75
2022/05/19 06:45:24;;;;;;;32.78;19.77;;;;;;;18.06;100.00;101785.88;5068998;28;20128;-76
2022/05/19 06:47:51;;;;;;;25.02;19.98;;;;;;;18.19;100.00;101786.22;5068966;28;20071;-76
2022/05/19 06:50:17;;;;;;;27.20;19.95;;;;;;;18.39;100.00;101773.28;5072493;28;20108;-76
2022/05/19 06:52:49;;;;;;;26.58;18.90;;;;;;;18.56;100.00;101776.81;5072488;28;20380;-78
2022/05/19 06:55:17;;;;;;;23.63;17.67;;;;;;;18.73;100.00;101784.91;5072504;28;20472;-76
2022/05/19 06:57:43;;;;;;;21.25;17.35;;;;;;;18.92;100.00;101784.56;5071844;28;20032;-75
2022/05/19 07:00:12;;;;;;;21.77;16.85;;;;;;;19.03;100.00;101786.91;5072217;28;20047;-77
2022/05/19 07:02:42;;;;;;;21.58;16.20;;;;;;;19.28;100.00;101783.28;5054001;28;20024;-78
2022/05/19 07:05:08;;;;;;;19.48;14.57;;;;;;;19.38;100.00;101779.38;5072573;28;20107;-80
2022/05/19 07:07:33;;;;;;;18.55;14.90;;;;;;;19.40;100.00;101775.66;5072078;28;20439;-81
2022/05/19 07:09:58;;;;;;;17.08;14.18;;;;;;;19.45;100.00;101778.66;5072188;28;20310;-79
2022/05/19 07:12:24;;;;;;;15.35;11.73;;;;;;;19.56;100.00;101775.59;5072587;28;20032;-78
2022/05/19 07:14:53;;;;;;;14.25;12.60;;;;;;;19.65;100.00;101779.94;5072337;28;20077;-79
2022/05/19 07:17:19;;;;;;;14.10;11.40;;;;;;;19.73;100.00;101771.81;5072491;28;20024;-78
2022/05/19 07:22:29;;;;;;;13.32;10.43;;;;;;;19.88;96.93;101793.53;5072663;28;20147;-79
2022/05/19 07:24:55;;;;;;;15.15;11.18;;;;;;;19.88;96.66;101798.06;5072239;28;20444;-79
2022/05/19 07:27:21;;;;;;;15.25;10.98;;;;;;;19.99;98.92;101802.22;5072093;28;20124;-80
2022/05/19 07:29:47;;;;;;;14.93;11.30;;;;;;;20.13;100.00;101796.06;5072537;28;20131;-80
2022/05/19 07:32:12;;;;;;;16.55;11.15;;;;;;;20.23;97.28;101793.97;5072091;28;20492;-81
2022/05/19 07:34:39;;;;;;;16.10;10.30;;;;;;;20.24;96.76;101792.09;5072096;28;20126;-81
2022/05/19 07:37:05;;;;;;;15.45;12.35;;;;;;;20.19;95.08;101803.44;5071876;28;20024;-78
2022/05/19 07:39:30;;;;;;;14.50;12.40;;;;;;;20.10;94.70;101809.09;5071936;28;20032;-80
2022/05/19 07:41:56;;;;;;;15.40;11.93;;;;;;;20.17;97.81;101810.03;5072135;28;20025;-80
2022/05/19 07:44:23;;;;;;;19.42;11.90;;;;;;;20.32;99.28;101823.59;5072188;28;20087;-80
2022/05/19 07:46:49;;;;;;;17.05;11.50;;;;;;;20.21;94.67;101817.63;5071768;28;20124;-80
2022/05/19 07:49:15;;;;;;;17.88;10.95;;;;;;;20.19;96.06;101816.13;5072198;28;20064;-80
2022/05/19 07:51:42;;;;;;;21.77;11.40;;;;;;;20.05;96.06;101815.03;5072009;28;20123;-79
2022/05/19 07:54:11;;;;;;;19.50;12.30;;;;;;;19.89;97.84;101815.97;5071464;28;20029;-78
2022/05/19 07:56:38;;;;;;;18.25;11.25;;;;;;;19.65;98.95;101806.09;5071898;28;20066;-78
2022/05/19 07:59:04;;;;;;;16.50;11.23;;;;;;;19.55;100.00;101800.91;5071691;28;20093;-78
2022/05/19 08:01:30;;;;;;;14.32;11.18;;;;;;;19.58;100.00;101808.63;5071746;28;20452;-79
2022/05/19 08:03:57;;;;;;;14.13;10.35;;;;;;;19.58;100.00;101805.94;5071799;28;20457;-80
2022/05/19 08:06:22;;;;;;;15.38;10.98;;;;;;;19.99;100.00;101813.00;5071709;28;20097;-79
2022/05/19 08:08:48;;;;;;;13.23;10.23;;;;;;;20.28;100.00;101811.50;5071810;28;20088;-79
2022/05/19 08:11:13;;;;;;;11.57;8.75;;;;;;;20.51;97.40;101820.44;5071556;28;20029;-79
2022/05/19 08:16:23;;;;;;;9.95;8.48;;;;;;;20.86;92.29;101839.78;5071542;28;20151;-78
2022/05/19 08:18:49;;;;;;;12.82;8.05;;;;;;;20.94;90.39;101839.72;5072018;28;20120;-79
2022/05/19 08:21:16;;;;;;;11.25;8.48;;;;;;;20.90;87.71;101832.97;5071692;28;20028;-78
2022/05/19 08:23:46;;;;;;;11.02;8.48;;;;;;;21.09;90.47;101828.06;5071576;28;20120;-78
2022/05/19 08:26:12;;;;;;;10.65;8.65;;;;;;;21.17;88.96;101805.47;5071750;28;20424;-78
2022/05/19 08:28:40;;;;;;;10.68;8.23;;;;;;;21.41;91.35;101788.97;5071049;28;20041;-79
2022/05/19 08:31:11;;;;;;;12.57;8.98;;;;;;;21.66;90.97;101775.13;5071271;28;20040;-78
2022/05/19 08:33:38;;;;;;;11.75;8.13;;;;;;;22.10;89.90;101776.06;5053354;28;20527;-81
2022/05/19 08:36:05;;;;;;;10.30;7.75;;;;;;;22.55;86.19;101771.28;5071362;28;20035;-79
2022/05/19 08:38:31;;;;;;;8.55;7.55;;;;;;;23.09;84.84;101772.47;5071579;28;20036;-79
2022/05/19 08:41:17;;;;;;;8.43;7.20;;;;;;;23.88;82.12;101773.09;5071189;28;20056;-79
2022/05/19 08:43:51;;;;;;;10.40;7.15;;;;;;;24.58;76.07;101765.44;5070955;28;20101;-80
2022/05/19 08:46:23;;;;;;;10.23;7.07;;;;;;;25.02;73.32;101764.97;5071146;28;20052;-80
2022/05/19 08:48:55;;;;;;;13.20;7.30;;;;;;;25.26;69.30;101767.00;5071010;28;20072;-79
2022/05/19 08:51:25;;;;;;;8.93;6.97;;;;;;;25.24;66.95;101773.69;5070899;28;20067;-80
2022/05/19 08:53:54;;;;;;;9.20;6.80;;;;;;;24.97;69.29;101774.59;5070872;28;20070;-78
2022/05/19 08:56:23;;;;;;;8.80;6.72;;;;;;;25.16;66.62;101778.31;5052689;28;20421;-79
2022/05/19 08:59:33;;;;;;;8.25;7.05;;;;;;;24.92;66.95;101781.75;5071007;28;20033;-79
2022/05/19 09:02:09;;;;;;;9.45;6.88;;;;;;;26.04;64.00;101793.28;5049622;28;20146;-79
2022/05/19 09:04:42;;;;;;;8.32;6.15;;;;;;;26.86;60.63;101792.47;5070716;28;20021;-79
2022/05/19 09:10:32;;;;;;;6.72;5.35;;;;;;;29.37;51.81;101802.91;5070357;28;20075;-79
2022/05/19 09:13:21;;;;;;;9.70;6.13;;;;;;;28.75;53.28;101802.59;5052204;28;20040;-79
2022/05/19 09:15:47;;;;;;;8.38;5.53;;;;;;;28.09;53.06;101806.13;5070375;28;20040;-80
2022/05/19 09:18:15;;;;;;;11.45;4.80;;;;;;;27.68;54.71;101790.50;5070348;28;20037;-79
2022/05/19 09:20:50;;;;;;;7.68;5.05;;;;;;;27.31;56.46;101791.34;5070053;28;20336;-79
2022/05/19 09:23:15;;;;;;;8.27;4.88;;;;;;;27.24;54.43;101791.41;5070519;28;20035;-79
2022/05/19 09:25:46;;;;;;;5.30;4.78;;;;;;;27.38;55.23;101778.47;5070430;28;20028;-79
2022/05/19 09:28:13;;;;;;;7.00;4.22;;;;;;;28.13;57.17;101780.00;5070016;28;20135;-78
2022/05/19 09:30:53;;;;;;;7.05;4.32;;;;;;;29.89;50.28;101776.53;5070600;28;20499;-80
2022/05/19 09:33:42;;;;;;;6.10;4.35;;;;;;;30.99;43.80;101773.34;5070304;28;20040;-80
2022/05/19 09:36:11;;;;;;;6.13;3.72;;;;;;;31.66;40.50;101779.69;5051910;28;20043;-80
2022/05/19 09:39:00;;;;;;;6.45;3.75;;;;;;;32.09;39.19;101777.09;5070210;28;20111;-80
2022/05/19 09:41:38;;;;;;;4.47;3.08;;;;;;;31.03;41.92;101777.25;5070147;28;20487;-80
2022/05/19 09:44:04;;;;;;;5.55;3.60;;;;;;;30.65;40.25;101770.66;5070461;28;20074;-80
2022/05/19 09:46:52;;;;;;;7.97;3.15;;;;;;;30.23;43.21;101766.41;5070286;28;20043;-79
2022/05/19 09:49:31;;;;;;;4.47;3.00;;;;;;;30.05;41.89;101767.50;5070339;28;20471;-79
2022/05/19 09:52:03;;;;;;;7.75;3.30;;;;;;;29.33;45.10;101754.31;5070228;28;20032;-80
2022/05/19 09:54:33;;;;;;;4.68;3.80;;;;;;;28.32;48.53;101744.34;5070265;28;20177;-79
2022/05/19 09:57:10;;;;;;;6.45;3.25;;;;;;;28.07;50.32;101756.31;5070044;28;20106;-79
2022/05/19 09:59:47;;;;;;;5.22;2.83;;;;;;;27.84;47.16;101758.94;5070507;28;20029;-80
2022/05/19 10:02:24;;;;;;;4.05;2.80;;;;;;;27.64;46.07;101771.00;5070079;28;20034;-80
2022/05/19 10:04:53;;;;;;;7.05;3.70;;;;;;;26.86;50.22;101775.25;5070355;28;20032;-79
2022/05/19 10:07:24;;;;;;;7.87;3.20;;;;;;;26.10;51.00;101782.56;5070055;28;20025;-80
2022/05/19 10:09:51;;;;;;;5.32;3.45;;;;;;;25.01;54.16;101785.09;5051664;28;20131;-80
2022/05/19 10:12:25;;;;;;;6.32;4.00;;;;;;;24.37;56.62;101790.94;5070557;28;20032;-80
2022/05/19 10:15:00;;;;;;;7.03;4.47;;;;;;;23.75;59.31;101790.13;5070260;28;20032;-78
2022/05/19 10:17:29;;;;;;;6.13;4.32;;;;;;;23.51;61.05;101765.22;5051897;28;20101;-80
2022/05/19 10:20:09;;;;;;;6.70;4.47;;;;;;;23.62;60.17;101769.22;5069743;28;20082;-79
2022/05/19 10:22:56;;;;;;;6.65;4.80;;;;;;;23.68;60.19;101779.25;5071267;28;20024;-79
2022/05/19 10:25:43;;;;;;;11.80;5.07;;;;;;;23.58;60.84;101797.81;5073982;28;20029;-79
2022/05/19 10:31:25;;;;;;;6.45;4.20;;;;;;;22.95;63.84;101812.25;5073488;28;20459;-79
2022/05/19 10:34:21;;;;;;;8.85;4.57;;;;;;;22.69;63.52;101796.63;5073338;28;20025;-79
2022/05/19 10:37:25;;;;;;;7.72;5.00;;;;;;;22.39;65.22;101796.78;5071702;28;20117;-78
2022/05/19 10:39:54;;;;;;;9.63;5.30;;;;;;;21.98;66.25;101830.72;5073332;28;20032;-77
2022/05/19 10:42:49;;;;;;;8.80;5.18;;;;;;;21.63;67.81;101849.47;5073411;28;20039;-76
2022/05/19 10:45:32;;;;;;;11.15;6.15;;;;;;;21.32;71.35;101863.19;5073412;28;20029;-75
2022/05/19 10:48:47;;;;;;;14.75;6.93;;;;;;;20.92;74.95;101893.13;5073068;28;20462;-76
2022/05/19 10:51:26;;;;;;;12.10;7.57;;;;;;;20.32;79.89;101916.34;5039291;28;20123;-79
2022/05/19 10:54:25;;;;;;;16.00;8.45;;;;;;;19.76;84.14;101926.34;5054701;28;20453;-79
2022/05/19 10:57:18;;;;;;;14.82;8.38;;;;;;;19.38;85.95;101940.44;5072496;28;20068;-79
2022/05/19 11:00:11;;;;;;;18.92;10.18;;;;;;;19.06;89.57;101946.69;5072980;28;20024;-79
2022/05/19 11:03:05;;;;;;;17.23;10.38;;;;;;;18.71;93.15;101954.88;5072725;28;20119;-78
2022/05/19 11:05:49;;;;;;;19.40;11.15;;;;;;;18.40;96.64;101966.25;5072597;28;20029;-77
2022/05/19 11:08:27;;;;;;;19.13;11.23;;;;;;;18.18;99.37;101965.00;5072279;28;20033;-77
2022/05/19 11:11:05;;;;;;;17.63;11.52;;;;;;;18.00;99.65;101957.00;5072371;28;20040;-77
2022/05/19 11:13:54;;;;;;;27.50;13.20;;;;;;;17.83;100.00;101960.59;5072359;28;20321;-76
2022/05/19 11:16:34;;;;;;;27.90;13.23;;;;;;;17.66;100.00;101963.19;5072565;28;20054;-79
2022/05/19 11:19:23;;;;;;;21.10;11.57;;;;;;;17.48;100.00;101965.94;5072159;28;20467;-77
2022/05/19 11:21:51;;;;;;;19.83;11.07;;;;;;;17.32;100.00;101952.38;5072164;28;20028;-79
2022/05/19 11:24:24;;;;;;;20.77;11.02;;;;;;;17.22;100.00;101939.84;5072070;28;20071;-80
2022/05/19 11:27:09;;;;;;;24.73;11.85;;;;;;;17.13;100.00;101945.31;5053957;28;20029;-80
2022/05/19 11:29:43;;;;;;;19.35;10.00;;;;;;;17.03;100.00;101942.69;5071902;28;20128;-77
2022/05/19 11:32:15;;;;;;;12.15;8.13;;;;;;;16.92;100.00;101915.06;5072141;28;20033;-78
2022/05/19 11:34:52;;;;;;;14.23;6.75;;;;;;;16.79;100.00;101925.31;5071688;28;20043;-77